createdAt,value
2023-05-20T00:00:34.848Z,463.00
2023-05-20T00:01:35.789Z,463.00
2023-05-20T00:02:35.949Z,461.00
2023-05-20T00:03:35.962Z,461.00
2023-05-20T00:04:36.064Z,457.00
2023-05-20T00:05:35.277Z,458.00
2023-05-20T00:06:36.081Z,461.00
2023-05-20T00:07:36.140Z,462.00
2023-05-20T00:08:35.320Z,461.00
2023-05-20T00:09:35.205Z,463.00
2023-05-20T00:10:36.474Z,467.00
2023-05-20T00:11:35.378Z,466.00
2023-05-20T00:12:36.378Z,467.00
2023-05-20T00:13:35.621Z,468.00
2023-05-20T00:14:36.507Z,468.00
2023-05-20T00:15:35.891Z,468.00
2023-05-20T00:16:36.760Z,465.00
2023-05-20T00:17:35.750Z,463.00
2023-05-20T00:18:36.866Z,464.00
2023-05-20T00:19:35.823Z,466.00
2023-05-20T00:20:35.876Z,469.00
2023-05-20T00:21:36.941Z,471.00
2023-05-20T00:22:36.028Z,472.00
2023-05-20T00:23:37.100Z,472.00
2023-05-20T00:24:37.115Z,472.00
2023-05-20T00:25:36.517Z,473.00
2023-05-20T00:26:37.387Z,470.00
2023-05-20T00:27:36.313Z,469.00
2023-05-20T00:28:36.418Z,468.00
2023-05-20T00:29:37.424Z,465.00
2023-05-20T00:30:36.496Z,465.00
2023-05-20T00:31:36.816Z,464.00
2023-05-20T00:32:36.685Z,464.00
2023-05-20T00:33:36.907Z,461.00
2023-05-20T00:34:36.739Z,460.00
2023-05-20T00:35:37.940Z,460.00
2023-05-20T00:36:36.840Z,462.00
2023-05-20T00:37:37.130Z,463.00
2023-05-20T00:38:37.945Z,462.00
2023-05-20T00:39:38.002Z,466.00
2023-05-20T00:40:37.057Z,467.00
2023-05-20T00:41:37.301Z,466.00
2023-05-20T00:42:38.237Z,466.00
2023-05-20T00:43:37.325Z,466.00
2023-05-20T00:44:37.254Z,466.00
2023-05-20T00:45:38.397Z,468.00
2023-05-20T00:46:38.415Z,470.00
2023-05-20T00:47:37.500Z,472.00
2023-05-20T00:48:37.470Z,473.00
2023-05-20T00:49:37.570Z,473.00
2023-05-20T00:50:38.574Z,468.00
2023-05-20T00:51:37.633Z,466.00
2023-05-20T00:52:37.699Z,467.00
2023-05-20T00:53:37.768Z,467.00
2023-05-20T00:54:38.918Z,469.00
2023-05-20T00:55:37.872Z,468.00
2023-05-20T00:56:38.896Z,466.00
2023-05-20T00:57:39.145Z,466.00
2023-05-20T00:58:38.205Z,467.00
2023-05-20T00:59:38.184Z,468.00
2023-05-20T01:00:38.260Z,468.00
2023-05-20T01:01:38.264Z,468.00
2023-05-20T01:02:39.564Z,465.00
2023-05-20T01:03:38.851Z,466.00
2023-05-20T01:04:38.606Z,469.00
2023-05-20T01:05:41.458Z,470.00
2023-05-20T01:06:38.542Z,466.00
2023-05-20T01:07:38.483Z,468.00
2023-05-20T01:08:39.633Z,468.00
2023-05-20T01:09:38.587Z,469.00
2023-05-20T01:10:39.463Z,471.00
2023-05-20T01:11:38.617Z,472.00
2023-05-20T01:12:38.429Z,469.00
2023-05-20T01:13:39.421Z,468.00
2023-05-20T01:14:38.520Z,469.00
2023-05-20T01:15:39.377Z,471.00
2023-05-20T01:16:39.474Z,471.00
2023-05-20T01:17:38.466Z,469.00
2023-05-20T01:18:38.684Z,468.00
2023-05-20T01:19:38.628Z,465.00
2023-05-20T01:20:38.350Z,465.00
2023-05-20T01:21:38.360Z,464.00
2023-05-20T01:22:38.340Z,463.00
2023-05-20T01:23:38.369Z,461.00
2023-05-20T01:24:39.545Z,460.00
2023-05-20T01:25:38.410Z,458.00
2023-05-20T01:26:39.377Z,457.00
2023-05-20T01:27:38.448Z,456.00
2023-05-20T01:28:39.399Z,456.00
2023-05-20T01:29:38.501Z,455.00
2023-05-20T01:30:39.528Z,456.00
2023-05-20T01:31:38.579Z,454.00
2023-05-20T01:32:38.402Z,456.00
2023-05-20T01:33:38.392Z,457.00
2023-05-20T01:34:38.438Z,461.00
2023-05-20T01:35:38.480Z,460.00
2023-05-20T01:36:38.621Z,462.00
2023-05-20T01:37:38.605Z,462.00
2023-05-20T01:38:39.715Z,462.00
2023-05-20T01:39:39.714Z,460.00
2023-05-20T01:40:38.732Z,461.00
2023-05-20T01:41:39.860Z,459.00
2023-05-20T01:42:38.878Z,458.00
2023-05-20T01:43:38.895Z,459.00
2023-05-20T01:44:39.085Z,462.00
2023-05-20T01:45:39.097Z,462.00
2023-05-20T01:46:39.038Z,462.00
2023-05-20T01:47:39.165Z,462.00
2023-05-20T01:48:40.111Z,462.00
2023-05-20T01:49:39.131Z,461.00
2023-05-20T01:50:40.168Z,462.00
2023-05-20T01:51:40.207Z,464.00
2023-05-20T01:52:39.266Z,467.00
2023-05-20T01:53:39.308Z,464.00
2023-05-20T01:54:40.325Z,466.00
2023-05-20T01:55:39.382Z,462.00
2023-05-20T01:56:39.428Z,466.00
2023-05-20T01:57:40.647Z,465.00
2023-05-20T01:58:39.560Z,467.00
2023-05-20T01:59:40.673Z,463.00
2023-05-20T02:00:39.675Z,464.00
2023-05-20T02:01:40.761Z,462.00
2023-05-20T02:02:40.018Z,462.00
2023-05-20T02:03:40.780Z,460.00
2023-05-20T02:04:40.830Z,459.00
2023-05-20T02:05:39.905Z,459.00
2023-05-20T02:06:39.939Z,460.00
2023-05-20T02:07:40.097Z,461.00
2023-05-20T02:08:40.918Z,464.00
2023-05-20T02:09:40.092Z,464.00
2023-05-20T02:10:39.969Z,464.00
2023-05-20T02:11:41.050Z,464.00
2023-05-20T02:12:41.162Z,462.00
2023-05-20T02:13:41.047Z,461.00
2023-05-20T02:14:41.054Z,462.00
2023-05-20T02:15:40.118Z,463.00
2023-05-20T02:16:41.205Z,463.00
2023-05-20T02:17:40.207Z,461.00
2023-05-20T02:18:41.230Z,459.00
2023-05-20T02:19:41.211Z,455.00
2023-05-20T02:20:40.417Z,457.00
2023-05-20T02:21:40.395Z,458.00
2023-05-20T02:22:40.321Z,459.00
2023-05-20T02:23:40.278Z,459.00
2023-05-20T02:24:40.300Z,461.00
2023-05-20T02:25:41.372Z,461.00
2023-05-20T02:26:40.341Z,465.00
2023-05-20T02:27:40.322Z,467.00
2023-05-20T02:28:41.334Z,467.00
2023-05-20T02:29:40.343Z,466.00
2023-05-20T02:30:40.384Z,466.00
2023-05-20T02:31:41.404Z,467.00
2023-05-20T02:32:41.432Z,467.00
2023-05-20T02:33:40.670Z,468.00
2023-05-20T02:34:41.462Z,468.00
2023-05-20T02:35:40.468Z,469.00
2023-05-20T02:36:41.521Z,470.00
2023-05-20T02:37:41.512Z,468.00
2023-05-20T02:38:41.612Z,468.00
2023-05-20T02:39:40.654Z,468.00
2023-05-20T02:40:40.633Z,466.00
2023-05-20T02:41:41.700Z,467.00
2023-05-20T02:42:40.597Z,466.00
2023-05-20T02:43:40.799Z,466.00
2023-05-20T02:44:41.580Z,464.00
2023-05-20T02:45:41.136Z,464.00
2023-05-20T02:46:41.579Z,467.00
2023-05-20T02:47:40.661Z,469.00
2023-05-20T02:48:40.569Z,468.00
2023-05-20T02:49:40.619Z,466.00
2023-05-20T02:50:40.786Z,467.00
2023-05-20T02:51:41.624Z,469.00
2023-05-20T02:52:40.659Z,469.00
2023-05-20T02:53:40.681Z,471.00
2023-05-20T02:54:41.700Z,470.00
2023-05-20T02:55:40.718Z,470.00
2023-05-20T02:56:41.743Z,473.00
2023-05-20T02:57:40.752Z,474.00
2023-05-20T02:58:41.866Z,475.00
2023-05-20T02:59:40.768Z,475.00
2023-05-20T03:00:41.770Z,475.00
2023-05-20T03:01:41.886Z,473.00
2023-05-20T03:02:40.962Z,473.00
2023-05-20T03:03:40.900Z,469.00
2023-05-20T03:04:40.941Z,468.00
2023-05-20T03:05:41.918Z,466.00
2023-05-20T03:06:41.827Z,466.00
2023-05-20T03:07:41.841Z,468.00
2023-05-20T03:08:41.017Z,470.00
2023-05-20T03:09:42.023Z,468.00
2023-05-20T03:10:40.924Z,470.00
2023-05-20T03:11:42.020Z,469.00
2023-05-20T03:12:41.955Z,471.00
2023-05-20T03:13:42.063Z,470.00
2023-05-20T03:14:40.943Z,470.00
2023-05-20T03:15:42.056Z,472.00
2023-05-20T03:16:40.914Z,472.00
2023-05-20T03:17:41.978Z,471.00
2023-05-20T03:18:41.951Z,470.00
2023-05-20T03:19:41.935Z,467.00
2023-05-20T03:20:42.064Z,468.00
2023-05-20T03:21:42.065Z,468.00
2023-05-20T03:22:41.064Z,469.00
2023-05-20T03:23:40.912Z,470.00
2023-05-20T03:24:41.910Z,471.00
2023-05-20T03:25:42.058Z,472.00
2023-05-20T03:26:42.134Z,472.00
2023-05-20T03:27:40.966Z,472.00
2023-05-20T03:28:41.018Z,472.00
2023-05-20T03:29:42.111Z,471.00
2023-05-20T03:30:42.241Z,470.00
2023-05-20T03:31:42.217Z,471.00
2023-05-20T03:32:42.122Z,472.00
2023-05-20T03:33:41.124Z,472.00
2023-05-20T03:34:40.994Z,473.00
2023-05-20T03:35:40.992Z,475.00
2023-05-20T03:36:41.990Z,473.00
2023-05-20T03:37:41.045Z,473.00
2023-05-20T03:38:40.981Z,472.00
2023-05-20T03:39:41.001Z,474.00
2023-05-20T03:40:40.998Z,473.00
2023-05-20T03:41:42.060Z,475.00
2023-05-20T03:42:41.017Z,475.00
2023-05-20T03:43:42.062Z,474.00
2023-05-20T03:44:40.963Z,477.00
2023-05-20T03:45:41.273Z,472.00
2023-05-20T03:46:41.002Z,472.00
2023-05-20T03:47:41.020Z,472.00
2023-05-20T03:48:41.158Z,473.00
2023-05-20T03:49:42.150Z,472.00
2023-05-20T03:50:41.085Z,473.00
2023-05-20T03:51:42.163Z,473.00
2023-05-20T03:52:42.215Z,471.00
2023-05-20T03:53:42.127Z,468.00
2023-05-20T03:54:41.979Z,468.00
2023-05-20T03:55:42.318Z,469.00
2023-05-20T03:56:42.104Z,468.00
2023-05-20T03:57:42.200Z,468.00
2023-05-20T03:58:41.946Z,470.00
2023-05-20T03:59:40.942Z,469.00
2023-05-20T04:00:41.953Z,466.00
2023-05-20T04:01:42.017Z,468.00
2023-05-20T04:02:42.024Z,468.00
2023-05-20T04:03:42.156Z,473.00
2023-05-20T04:04:40.932Z,474.00
2023-05-20T04:05:41.968Z,478.00
2023-05-20T04:06:41.914Z,477.00
2023-05-20T04:07:40.969Z,476.00
2023-05-20T04:08:40.963Z,476.00
2023-05-20T04:09:40.914Z,476.00
2023-05-20T04:10:41.229Z,475.00
2023-05-20T04:11:42.026Z,476.00
2023-05-20T04:12:41.977Z,477.00
2023-05-20T04:13:41.058Z,479.00
2023-05-20T04:14:40.937Z,478.00
2023-05-20T04:15:42.039Z,478.00
2023-05-20T04:16:41.009Z,477.00
2023-05-20T04:17:41.955Z,476.00
2023-05-20T04:18:40.918Z,476.00
2023-05-20T04:19:40.887Z,472.00
2023-05-20T04:20:40.901Z,473.00
2023-05-20T04:21:40.891Z,473.00
2023-05-20T04:22:41.051Z,473.00
2023-05-20T04:23:41.901Z,471.00
2023-05-20T04:24:40.885Z,470.00
2023-05-20T04:25:41.959Z,470.00
2023-05-20T04:26:41.152Z,471.00
2023-05-20T04:27:41.033Z,469.00
2023-05-20T04:28:40.953Z,468.00
2023-05-20T04:29:41.981Z,470.00
2023-05-20T04:30:40.979Z,471.00
2023-05-20T04:31:41.089Z,471.00
2023-05-20T04:32:40.866Z,472.00
2023-05-20T04:33:40.896Z,474.00
2023-05-20T04:34:40.875Z,473.00
2023-05-20T04:35:40.933Z,476.00
2023-05-20T04:36:41.010Z,477.00
2023-05-20T04:37:40.862Z,475.00
2023-05-20T04:38:41.904Z,472.00
2023-05-20T04:39:40.866Z,474.00
2023-05-20T04:40:41.846Z,474.00
2023-05-20T04:41:41.056Z,473.00
2023-05-20T04:42:40.844Z,476.00
2023-05-20T04:43:40.834Z,475.00
2023-05-20T04:44:42.466Z,474.00
2023-05-20T04:45:41.098Z,474.00
2023-05-20T04:46:41.071Z,473.00
2023-05-20T04:47:41.035Z,474.00
2023-05-20T04:48:40.830Z,477.00
2023-05-20T04:49:40.882Z,481.00
2023-05-20T04:50:40.829Z,481.00
2023-05-20T04:51:41.913Z,481.00
2023-05-20T04:52:41.871Z,481.00
2023-05-20T04:53:40.844Z,481.00
2023-05-20T04:54:40.799Z,479.00
2023-05-20T04:55:41.810Z,475.00
2023-05-20T04:56:41.957Z,478.00
2023-05-20T04:57:40.964Z,478.00
2023-05-20T04:58:40.924Z,477.00
2023-05-20T04:59:41.851Z,478.00
2023-05-20T05:00:41.032Z,479.00
2023-05-20T05:01:42.017Z,477.00
2023-05-20T05:02:41.883Z,475.00
2023-05-20T05:03:40.903Z,473.00
2023-05-20T05:04:42.089Z,476.00
2023-05-20T05:05:40.874Z,474.00
2023-05-20T05:06:41.920Z,474.00
2023-05-20T05:07:41.865Z,473.00
2023-05-20T05:08:40.981Z,476.00
2023-05-20T05:09:41.876Z,474.00
2023-05-20T05:10:40.942Z,473.00
2023-05-20T05:11:41.848Z,470.00
2023-05-20T05:12:41.926Z,468.00
2023-05-20T05:13:41.868Z,468.00
2023-05-20T05:14:41.001Z,463.00
2023-05-20T05:15:41.895Z,466.00
2023-05-20T05:16:40.845Z,465.00
2023-05-20T05:17:41.929Z,465.00
2023-05-20T05:18:41.920Z,464.00
2023-05-20T05:19:41.854Z,462.00
2023-05-20T05:20:40.995Z,461.00
2023-05-20T05:21:41.865Z,462.00
2023-05-20T05:22:40.941Z,463.00
2023-05-20T05:23:41.857Z,466.00
2023-05-20T05:24:41.958Z,469.00
2023-05-20T05:25:40.862Z,468.00
2023-05-20T05:26:41.873Z,467.00
2023-05-20T05:27:40.894Z,470.00
2023-05-20T05:28:42.032Z,470.00
2023-05-20T05:29:41.849Z,472.00
2023-05-20T05:30:42.039Z,473.00
2023-05-20T05:31:40.938Z,473.00
2023-05-20T05:32:41.146Z,470.00
2023-05-20T05:33:41.050Z,471.00
2023-05-20T05:34:40.947Z,469.00
2023-05-20T05:35:41.016Z,474.00
2023-05-20T05:36:41.994Z,473.00
2023-05-20T05:37:41.053Z,473.00
2023-05-20T05:38:42.042Z,475.00
2023-05-20T05:39:41.066Z,476.00
2023-05-20T05:40:42.176Z,475.00
2023-05-20T05:41:42.324Z,475.00
2023-05-20T05:42:41.207Z,475.00
2023-05-20T05:43:41.296Z,472.00
2023-05-20T05:44:41.323Z,469.00
2023-05-20T05:45:42.242Z,470.00
2023-05-20T05:46:41.285Z,468.00
2023-05-20T05:47:42.349Z,472.00
2023-05-20T05:48:42.466Z,471.00
2023-05-20T05:49:41.584Z,469.00
2023-05-20T05:50:41.403Z,470.00
2023-05-20T05:51:41.455Z,472.00
2023-05-20T05:52:41.440Z,475.00
2023-05-20T05:53:41.451Z,477.00
2023-05-20T05:54:42.475Z,478.00
2023-05-20T05:55:41.571Z,478.00
2023-05-20T05:56:41.436Z,479.00
2023-05-20T05:57:41.551Z,477.00
2023-05-20T05:58:42.547Z,477.00
2023-05-20T05:59:42.565Z,479.00
2023-05-20T06:00:41.601Z,481.00
2023-05-20T06:01:42.606Z,478.00
2023-05-20T06:02:42.783Z,479.00
2023-05-20T06:03:41.689Z,480.00
2023-05-20T06:04:41.804Z,481.00
2023-05-20T06:05:42.751Z,480.00
2023-05-20T06:06:41.923Z,479.00
2023-05-20T06:07:42.822Z,478.00
2023-05-20T06:08:42.950Z,479.00
2023-05-20T06:09:43.007Z,477.00
2023-05-20T06:10:42.143Z,475.00
2023-05-20T06:11:43.082Z,474.00
2023-05-20T06:12:42.312Z,474.00
2023-05-20T06:13:42.161Z,475.00
2023-05-20T06:14:42.220Z,473.00
2023-05-20T06:15:42.250Z,472.00
2023-05-20T06:16:43.348Z,471.00
2023-05-20T06:17:43.408Z,469.00
2023-05-20T06:18:43.571Z,469.00
2023-05-20T06:19:42.719Z,469.00
2023-05-20T06:20:42.677Z,472.00
2023-05-20T06:21:43.617Z,473.00
2023-05-20T06:22:43.699Z,475.00
2023-05-20T06:23:43.832Z,473.00
2023-05-20T06:24:42.876Z,472.00
2023-05-20T06:25:42.875Z,470.00
2023-05-20T06:26:43.872Z,470.00
2023-05-20T06:27:42.963Z,472.00
2023-05-20T06:28:44.227Z,473.00
2023-05-20T06:29:43.893Z,471.00
2023-05-20T06:30:43.470Z,468.00
2023-05-20T06:31:43.352Z,468.00
2023-05-20T06:32:43.302Z,469.00
2023-05-20T06:33:43.450Z,471.00
2023-05-20T06:34:43.440Z,471.00
2023-05-20T06:35:43.602Z,472.00
2023-05-20T06:36:43.677Z,473.00
2023-05-20T06:37:44.682Z,472.00
2023-05-20T06:38:43.786Z,470.00
2023-05-20T06:39:44.670Z,468.00
2023-05-20T06:40:43.755Z,468.00
2023-05-20T06:41:44.908Z,468.00
2023-05-20T06:42:44.001Z,470.00
2023-05-20T06:43:45.129Z,471.00
2023-05-20T06:44:44.147Z,472.00
2023-05-20T06:45:45.147Z,472.00
2023-05-20T06:46:45.505Z,473.00
2023-05-20T06:47:44.240Z,475.00
2023-05-20T06:48:44.321Z,475.00
2023-05-20T06:49:47.172Z,474.00
2023-05-20T06:50:44.296Z,476.00
2023-05-20T06:51:45.294Z,477.00
2023-05-20T06:52:45.468Z,477.00
2023-05-20T06:53:44.303Z,477.00
2023-05-20T06:54:44.300Z,476.00
2023-05-20T06:55:44.378Z,477.00
2023-05-20T06:56:45.529Z,477.00
2023-05-20T06:57:44.272Z,478.00
2023-05-20T06:58:44.315Z,481.00
2023-05-20T06:59:44.228Z,481.00
2023-05-20T07:00:44.244Z,477.00
2023-05-20T07:01:44.273Z,477.00
2023-05-20T07:02:45.225Z,480.00
2023-05-20T07:03:44.303Z,480.00
2023-05-20T07:04:45.188Z,480.00
2023-05-20T07:05:45.185Z,479.00
2023-05-20T07:06:44.393Z,479.00
2023-05-20T07:07:45.242Z,479.00
2023-05-20T07:08:44.370Z,483.00
2023-05-20T07:09:44.287Z,480.00
2023-05-20T07:10:44.149Z,483.00
2023-05-20T07:11:45.212Z,485.00
2023-05-20T07:12:44.249Z,484.00
2023-05-20T07:13:44.347Z,486.00
2023-05-20T07:14:45.406Z,487.00
2023-05-20T07:15:44.514Z,486.00
2023-05-20T07:16:45.668Z,486.00
2023-05-20T07:17:45.768Z,486.00
2023-05-20T07:18:45.675Z,483.00
2023-05-20T07:19:44.833Z,481.00
2023-05-20T07:20:45.976Z,484.00
2023-05-20T07:21:45.893Z,483.00
2023-05-20T07:22:45.855Z,483.00
2023-05-20T07:23:46.054Z,483.00
2023-05-20T07:24:44.947Z,480.00
2023-05-20T07:25:46.061Z,481.00
2023-05-20T07:26:45.328Z,481.00
2023-05-20T07:27:45.344Z,481.00
2023-05-20T07:28:46.210Z,479.00
2023-05-20T07:29:45.194Z,479.00
2023-05-20T07:30:45.395Z,479.00
2023-05-20T07:31:45.557Z,479.00
2023-05-20T07:32:45.458Z,478.00
2023-05-20T07:33:45.425Z,477.00
2023-05-20T07:34:46.540Z,478.00
2023-05-20T07:35:45.538Z,476.00
2023-05-20T07:36:46.714Z,477.00
2023-05-20T07:37:46.642Z,476.00
2023-05-20T07:38:56.601Z,475.00
2023-05-20T07:39:46.778Z,477.00
2023-05-20T07:40:45.676Z,476.00
2023-05-20T07:41:46.793Z,479.00
2023-05-20T07:42:46.849Z,478.00
2023-05-20T07:43:45.660Z,479.00
2023-05-20T07:44:46.685Z,481.00
2023-05-20T07:45:46.718Z,481.00
2023-05-20T07:46:46.671Z,481.00
2023-05-20T07:47:45.787Z,481.00
2023-05-20T07:48:45.623Z,480.00
2023-05-20T07:49:45.675Z,479.00
2023-05-20T07:50:45.789Z,479.00
2023-05-20T07:51:45.855Z,479.00
2023-05-20T07:52:56.105Z,478.00
2023-05-20T07:53:46.975Z,477.00
2023-05-20T07:54:45.908Z,478.00
2023-05-20T07:55:45.853Z,478.00
2023-05-20T07:56:46.817Z,476.00
2023-05-20T07:57:45.790Z,476.00
2023-05-20T07:58:46.895Z,474.00
2023-05-20T07:59:45.795Z,473.00
2023-05-20T08:00:45.869Z,474.00
2023-05-20T08:01:46.774Z,475.00
2023-05-20T08:02:46.943Z,476.00
2023-05-20T08:03:46.831Z,477.00
2023-05-20T08:04:45.733Z,476.00
2023-05-20T08:05:46.791Z,478.00
2023-05-20T08:06:46.764Z,480.00
2023-05-20T08:07:46.815Z,480.00
2023-05-20T08:08:45.949Z,481.00
2023-05-20T08:09:46.716Z,480.00
2023-05-20T08:10:46.704Z,480.00
2023-05-20T08:11:47.359Z,480.00
2023-05-20T08:12:45.687Z,479.00
2023-05-20T08:13:45.666Z,479.00
2023-05-20T08:14:45.681Z,479.00
2023-05-20T08:15:45.764Z,481.00
2023-05-20T08:16:45.745Z,479.00
2023-05-20T08:17:45.799Z,480.00
2023-05-20T08:18:45.778Z,481.00
2023-05-20T08:19:46.776Z,481.00
2023-05-20T08:20:45.853Z,482.00
2023-05-20T08:21:45.815Z,479.00
2023-05-20T08:22:45.847Z,479.00
2023-05-20T08:23:45.867Z,479.00
2023-05-20T08:24:45.939Z,480.00
2023-05-20T08:25:46.957Z,480.00
2023-05-20T08:26:46.017Z,481.00
2023-05-20T08:27:46.035Z,480.00
2023-05-20T08:28:46.161Z,481.00
2023-05-20T08:29:46.131Z,480.00
2023-05-20T08:30:46.154Z,479.00
2023-05-20T08:31:46.303Z,481.00
2023-05-20T08:32:46.377Z,483.00
2023-05-20T08:33:47.250Z,482.00
2023-05-20T08:34:46.409Z,482.00
2023-05-20T08:35:46.376Z,480.00
2023-05-20T08:36:47.367Z,479.00
2023-05-20T08:37:47.501Z,481.00
2023-05-20T08:41:43.859Z,473.00
2023-05-20T08:42:44.127Z,476.00
2023-05-20T08:43:44.116Z,472.00
2023-05-20T08:44:45.067Z,474.00
2023-05-20T08:45:43.978Z,472.00
2023-05-20T08:46:45.374Z,472.00
2023-05-20T08:47:44.189Z,474.00
2023-05-20T08:48:44.332Z,475.00
2023-05-20T08:49:45.140Z,475.00
2023-05-20T08:50:45.164Z,475.00
2023-05-20T08:51:45.205Z,476.00
2023-05-20T08:54:03.318Z,464.00
2023-05-20T08:55:03.304Z,464.00
2023-05-20T08:56:03.739Z,463.00
2023-05-20T08:57:03.297Z,466.00
2023-05-20T08:58:03.314Z,466.00
2023-05-20T08:59:04.275Z,469.00
2023-05-20T09:00:04.630Z,471.00
2023-05-20T09:01:03.327Z,471.00
2023-05-20T09:02:03.387Z,471.00
2023-05-20T09:03:04.316Z,473.00
2023-05-20T09:04:04.315Z,474.00
2023-05-20T09:05:03.306Z,475.00
2023-05-20T09:06:04.245Z,474.00
2023-05-20T09:07:03.223Z,474.00
2023-05-20T09:08:05.304Z,473.00
2023-05-20T09:09:04.415Z,471.00
2023-05-20T09:10:03.208Z,469.00
2023-05-20T09:11:04.277Z,470.00
2023-05-20T09:12:03.224Z,469.00
2023-05-20T09:13:04.361Z,470.00
2023-05-20T09:14:04.401Z,471.00
2023-05-20T09:15:04.312Z,469.00
2023-05-20T09:16:04.183Z,468.00
2023-05-20T09:17:04.167Z,467.00
2023-05-20T09:18:04.264Z,465.00
2023-05-20T09:19:03.289Z,465.00
2023-05-20T09:20:04.247Z,468.00
2023-05-20T09:21:03.135Z,469.00
2023-05-20T09:22:04.234Z,468.00
2023-05-20T09:23:03.283Z,468.00
2023-05-20T09:24:03.341Z,469.00
2023-05-20T09:25:03.227Z,470.00
2023-05-20T09:26:03.125Z,470.00
2023-05-20T09:27:03.125Z,472.00
2023-05-20T09:28:03.238Z,472.00
2023-05-20T09:29:03.208Z,473.00
2023-05-20T09:30:03.238Z,473.00
2023-05-20T09:31:03.169Z,473.00
2023-05-20T09:32:03.226Z,474.00
2023-05-20T09:33:04.218Z,475.00
2023-05-20T09:34:03.241Z,475.00
2023-05-20T09:35:03.481Z,474.00
2023-05-20T09:36:04.470Z,473.00
2023-05-20T09:37:04.209Z,472.00
2023-05-20T09:38:03.207Z,473.00
2023-05-20T09:39:03.336Z,476.00
2023-05-20T09:40:03.227Z,478.00
2023-05-20T09:41:04.412Z,480.00
2023-05-20T09:42:04.093Z,479.00
2023-05-20T09:43:03.239Z,477.00
2023-05-20T09:44:03.341Z,478.00
2023-05-20T09:45:04.392Z,476.00
2023-05-20T09:46:03.366Z,478.00
2023-05-20T09:47:05.845Z,478.00
2023-05-20T09:48:04.439Z,476.00
2023-05-20T09:49:03.204Z,477.00
2023-05-20T09:50:04.289Z,479.00
2023-05-20T09:51:03.221Z,480.00
2023-05-20T09:52:04.222Z,481.00
2023-05-20T09:53:03.179Z,482.00
2023-05-20T09:54:03.320Z,483.00
2023-05-20T09:55:03.302Z,479.00
2023-05-20T09:56:03.315Z,476.00
2023-05-20T09:57:04.174Z,477.00
2023-05-20T09:58:03.224Z,478.00
2023-05-20T09:59:04.139Z,476.00
2023-05-20T10:00:03.131Z,479.00
2023-05-20T10:01:03.154Z,480.00
2023-05-20T10:02:04.179Z,480.00
2023-05-20T10:03:03.279Z,479.00
2023-05-20T10:04:03.319Z,478.00
2023-05-20T10:05:04.117Z,478.00
2023-05-20T10:06:03.399Z,480.00
2023-05-20T10:07:03.272Z,482.00
2023-05-20T10:08:04.275Z,483.00
2023-05-20T10:09:03.298Z,481.00
2023-05-20T10:10:03.187Z,481.00
2023-05-20T10:11:03.222Z,481.00
2023-05-20T10:12:04.188Z,480.00
2023-05-20T10:13:04.050Z,481.00
2023-05-20T10:14:04.218Z,482.00
2023-05-20T10:15:03.118Z,481.00
2023-05-20T10:16:03.195Z,480.00
2023-05-20T10:17:03.045Z,477.00
2023-05-20T10:18:03.210Z,478.00
2023-05-20T10:19:03.069Z,482.00
2023-05-20T10:20:06.547Z,484.00
2023-05-20T10:21:04.019Z,480.00
2023-05-20T10:22:03.007Z,479.00
2023-05-20T10:23:04.028Z,483.00
2023-05-20T10:24:03.231Z,483.00
2023-05-20T10:25:04.117Z,482.00
2023-05-20T10:26:03.037Z,486.00
2023-05-20T10:27:02.956Z,485.00
2023-05-20T10:28:02.974Z,486.00
2023-05-20T10:29:03.955Z,485.00
2023-05-20T10:30:03.970Z,483.00
2023-05-20T10:31:03.955Z,482.00
2023-05-20T10:32:02.973Z,479.00
2023-05-20T10:33:04.084Z,480.00
2023-05-20T10:34:02.926Z,483.00
2023-05-20T10:35:03.929Z,484.00
2023-05-20T10:36:02.915Z,485.00
2023-05-20T10:37:02.933Z,485.00
2023-05-20T10:38:02.900Z,486.00
2023-05-20T10:39:03.883Z,485.00
2023-05-20T10:40:03.911Z,485.00
2023-05-20T10:41:03.003Z,486.00
2023-05-20T10:42:02.861Z,485.00
2023-05-20T10:43:02.849Z,484.00
2023-05-20T10:44:03.846Z,484.00
2023-05-20T10:45:02.911Z,484.00
2023-05-20T10:46:07.396Z,483.00
2023-05-20T10:48:03.743Z,486.00
2023-05-20T10:49:03.010Z,486.00
2023-05-20T10:50:02.817Z,487.00
2023-05-20T10:51:02.884Z,489.00
2023-05-20T10:52:03.797Z,491.00
2023-05-20T10:53:02.804Z,487.00
2023-05-20T10:54:03.842Z,485.00
2023-05-20T10:55:03.650Z,485.00
2023-05-20T10:56:03.834Z,484.00
2023-05-20T10:57:03.966Z,485.00
2023-05-20T10:58:02.758Z,484.00
2023-05-20T10:59:02.812Z,484.00
2023-05-20T11:00:02.865Z,484.00
2023-05-20T11:01:03.810Z,485.00
2023-05-20T11:02:02.714Z,485.00
2023-05-20T11:03:03.783Z,484.00
2023-05-20T11:04:02.743Z,483.00
2023-05-20T11:05:03.805Z,481.00
2023-05-20T11:06:02.710Z,485.00
2023-05-20T11:07:02.700Z,486.00
2023-05-20T11:09:02.734Z,484.00
2023-05-20T11:10:02.658Z,482.00
2023-05-20T11:11:03.699Z,482.00
2023-05-20T11:12:02.758Z,482.00
2023-05-20T11:13:02.858Z,482.00
2023-05-20T11:14:03.718Z,482.00
2023-05-20T11:15:02.699Z,483.00
2023-05-20T11:16:02.653Z,481.00
2023-05-20T11:17:03.881Z,477.00
2023-05-20T11:18:02.798Z,478.00
2023-05-20T11:19:03.755Z,480.00
2023-05-20T11:20:02.602Z,479.00
2023-05-20T11:21:02.691Z,480.00
2023-05-20T11:22:02.581Z,481.00
2023-05-20T11:23:02.597Z,482.00
2023-05-20T11:24:03.749Z,480.00
2023-05-20T11:25:02.686Z,482.00
2023-05-20T11:26:02.655Z,483.00
2023-05-20T11:27:02.747Z,484.00
2023-05-20T11:28:02.728Z,485.00
2023-05-20T11:29:03.738Z,486.00
2023-05-20T11:30:03.777Z,484.00
2023-05-20T11:31:02.830Z,485.00
2023-05-20T11:32:03.910Z,485.00
2023-05-20T11:33:03.132Z,484.00
2023-05-20T11:34:03.020Z,483.00
2023-05-20T11:35:03.209Z,482.00
2023-05-20T11:36:03.635Z,483.00
2023-05-20T11:37:03.209Z,480.00
2023-05-20T11:38:04.310Z,479.00
2023-05-20T11:39:03.273Z,479.00
2023-05-20T11:40:04.525Z,478.00
2023-05-20T11:41:03.584Z,478.00
2023-05-20T11:42:03.600Z,479.00
2023-05-20T11:43:03.533Z,480.00
2023-05-20T11:44:04.685Z,480.00
2023-05-20T11:45:03.829Z,482.00
2023-05-20T11:46:03.737Z,484.00
2023-05-20T11:47:04.775Z,486.00
2023-05-20T11:48:04.000Z,486.00
2023-05-20T11:49:05.187Z,486.00
2023-05-20T11:50:04.049Z,484.00
2023-05-20T11:51:04.192Z,486.00
2023-05-20T11:52:05.130Z,487.00
2023-05-20T11:53:04.188Z,487.00
2023-05-20T11:54:05.219Z,488.00
2023-05-20T11:55:05.326Z,487.00
2023-05-20T11:56:04.339Z,487.00
2023-05-20T11:57:06.888Z,487.00
2023-05-20T11:58:05.541Z,487.00
2023-05-20T11:59:04.413Z,488.00
2023-05-20T12:00:04.655Z,490.00
2023-05-20T12:01:17.907Z,493.00
2023-05-20T12:02:05.370Z,494.00
2023-05-20T12:03:04.456Z,494.00
2023-05-20T12:04:04.588Z,494.00
2023-05-20T12:05:05.456Z,495.00
2023-05-20T12:06:04.571Z,495.00
2023-05-20T12:07:05.346Z,493.00
2023-05-20T12:08:04.352Z,491.00
2023-05-20T12:09:04.392Z,488.00
2023-05-20T12:10:04.330Z,487.00
2023-05-20T12:11:04.404Z,489.00
2023-05-20T12:12:04.558Z,493.00
2023-05-20T12:13:05.480Z,493.00
2023-05-20T12:14:05.572Z,492.00
2023-05-20T12:15:04.655Z,491.00
2023-05-20T12:16:04.865Z,486.00
2023-05-20T12:17:04.726Z,487.00
2023-05-20T12:18:04.846Z,489.00
2023-05-20T12:19:05.984Z,487.00
2023-05-20T12:20:04.917Z,489.00
2023-05-20T12:21:05.079Z,489.00
2023-05-20T12:22:06.087Z,492.00
2023-05-20T12:23:05.219Z,493.00
2023-05-20T12:24:05.247Z,490.00
2023-05-20T12:25:05.220Z,489.00
2023-05-20T12:26:06.371Z,489.00
2023-05-20T12:27:05.596Z,486.00
2023-05-20T12:28:06.420Z,486.00
2023-05-20T12:29:06.461Z,488.00
2023-05-20T12:30:05.719Z,489.00
2023-05-20T12:31:06.689Z,489.00
2023-05-20T12:32:05.754Z,490.00
2023-05-20T12:33:06.835Z,493.00
2023-05-20T12:34:06.810Z,496.00
2023-05-20T12:35:05.847Z,497.00